createdAt,value
2019-03-24T00:00:25.896Z,2.26
2019-03-24T00:03:55.924Z,2.09
2019-03-24T00:07:25.996Z,2.01
2019-03-24T00:10:56.106Z,2.72
2019-03-24T00:14:26.347Z,3.04
2019-03-24T00:17:58.156Z,3.61
2019-03-24T00:21:28.208Z,2.62
2019-03-24T00:24:58.326Z,2.29
2019-03-24T00:28:28.468Z,2.8
2019-03-24T00:31:58.616Z,3.34
2019-03-24T00:35:28.798Z,3.83
2019-03-24T00:38:58.836Z,3.16
2019-03-24T00:42:28.904Z,1.84
2019-03-24T00:45:58.986Z,3.06
2019-03-24T00:49:29.106Z,3.01
2019-03-24T00:52:59.206Z,2.17
2019-03-24T00:56:29.310Z,3.04
2019-03-24T00:59:59.446Z,2.65
2019-03-24T01:03:29.526Z,2.25
2019-03-24T01:06:59.628Z,2.59
2019-03-24T01:10:29.716Z,2.24
2019-03-24T01:13:59.947Z,3.26
2019-03-24T01:17:30.166Z,2.23
2019-03-24T01:21:01.357Z,2.73
2019-03-24T01:24:31.456Z,2.7
2019-03-24T01:28:01.567Z,2.15
2019-03-24T01:31:31.669Z,3.21
2019-03-24T01:35:02.291Z,2.34
2019-03-24T01:38:32.303Z,2.61
2019-03-24T01:42:02.513Z,2.51
2019-03-24T01:45:32.617Z,2.5
2019-03-24T01:49:02.907Z,2.66
2019-03-24T01:52:33.037Z,2.41
2019-03-24T01:56:03.268Z,2.72
2019-03-24T01:59:33.457Z,2.25
2019-03-24T02:00:16.967Z,2.53
2019-03-24T02:03:47.239Z,2.52
2019-03-24T02:07:17.328Z,2.27
2019-03-24T02:10:47.601Z,2.44
2019-03-24T02:14:17.730Z,3.45
2019-03-24T02:17:47.837Z,2.21
2019-03-24T02:21:18.020Z,2.3
2019-03-24T02:24:48.108Z,2.39
2019-03-24T02:28:18.057Z,2.1
2019-03-24T02:31:48.178Z,2.83
2019-03-24T02:35:18.248Z,1.69
2019-03-24T02:38:48.374Z,2.3
2019-03-24T02:42:18.548Z,2.59
2019-03-24T02:45:48.649Z,2.3
2019-03-24T02:49:18.644Z,2.39
2019-03-24T02:52:48.805Z,2.45
2019-03-24T02:56:18.886Z,2.41
2019-03-24T02:59:48.957Z,1.89
2019-03-24T03:03:19.198Z,2.06
2019-03-24T03:06:49.431Z,3.04
2019-03-24T03:10:19.542Z,3.08
2019-03-24T03:13:49.628Z,3.14
2019-03-24T03:17:19.717Z,2.12
2019-03-24T03:20:49.870Z,2.41
2019-03-24T03:24:20.959Z,2.3
2019-03-24T03:27:51.232Z,2.75
2019-03-24T03:31:21.340Z,2.14
2019-03-24T03:34:51.428Z,2.76
2019-03-24T03:38:21.501Z,2.7
2019-03-24T03:41:51.628Z,1.95
2019-03-24T03:45:25.538Z,1.89
2019-03-24T03:48:55.728Z,1.76
2019-03-24T03:52:25.879Z,2.16
2019-03-24T03:55:55.936Z,4.9
2019-03-24T03:59:26.035Z,2.62
2019-03-24T04:00:30.048Z,2.09
2019-03-24T04:04:00.040Z,2.58
2019-03-24T04:07:30.103Z,2.01
2019-03-24T04:11:00.216Z,2.44
2019-03-24T04:14:30.308Z,1.98
2019-03-24T04:18:00.511Z,1.86
2019-03-24T04:21:30.567Z,2.08
2019-03-24T04:25:01.702Z,2.66
2019-03-24T04:28:31.818Z,2.49
2019-03-24T04:32:02.069Z,2.3
2019-03-24T04:35:32.167Z,2.44
2019-03-24T04:39:03.782Z,4.44
2019-03-24T04:42:33.927Z,7.6
2019-03-24T04:46:04.072Z,7.1
2019-03-24T04:49:34.148Z,3.54
2019-03-24T04:53:04.318Z,3.62
2019-03-24T04:56:34.347Z,3.25
2019-03-24T05:00:05.421Z,4.12
2019-03-24T05:03:35.417Z,3.45
2019-03-24T05:07:05.777Z,2.81
2019-03-24T05:10:35.787Z,2.35
2019-03-24T05:14:05.917Z,3.25
2019-03-24T05:17:36.122Z,3.2
2019-03-24T05:21:06.297Z,3.51
2019-03-24T05:24:36.398Z,3.35
2019-03-24T05:28:07.408Z,4.22
2019-03-24T05:31:37.477Z,3.58
2019-03-24T05:35:07.688Z,5.44
2019-03-24T05:38:37.768Z,11.68
2019-03-24T05:42:07.968Z,4.31
2019-03-24T05:45:37.958Z,1.77
2019-03-24T05:49:08.098Z,2.91
2019-03-24T05:52:38.249Z,3.17
2019-03-24T05:56:08.379Z,3.11
2019-03-24T05:59:38.441Z,2.68
2019-03-24T06:00:16.288Z,2.85
2019-03-24T06:03:46.428Z,9.6
2019-03-24T06:07:16.438Z,7.21
2019-03-24T06:10:46.668Z,3.56
2019-03-24T06:14:16.738Z,3.46
2019-03-24T06:17:48.068Z,3.44
2019-03-24T06:21:18.429Z,2.51
2019-03-24T06:24:48.531Z,2.81
2019-03-24T06:28:19.631Z,2.41
2019-03-24T06:31:49.803Z,4.26
2019-03-24T06:35:19.950Z,3.41
2019-03-24T06:38:50.214Z,2.62
2019-03-24T06:42:20.262Z,2.05
2019-03-24T06:45:50.420Z,3.42
2019-03-24T06:49:20.581Z,2.41
2019-03-24T06:52:50.611Z,2.58
2019-03-24T06:56:20.651Z,2.9
2019-03-24T06:59:50.791Z,3.08
2019-03-24T07:03:20.995Z,2.25
2019-03-24T07:06:51.142Z,2.86
2019-03-24T07:10:21.233Z,2.81
2019-03-24T07:13:51.292Z,2.74
2019-03-24T07:17:21.382Z,2.44
2019-03-24T07:20:51.493Z,2.98
2019-03-24T07:24:21.613Z,3.04
2019-03-24T07:27:51.786Z,3.11
2019-03-24T07:31:22.944Z,2.96
2019-03-24T07:34:53.174Z,3.66
2019-03-24T07:38:23.315Z,2.76
2019-03-24T07:41:53.405Z,3.48
2019-03-24T07:45:23.466Z,2.76
2019-03-24T07:48:53.684Z,5.07
2019-03-24T07:52:23.658Z,4.23
2019-03-24T07:55:53.796Z,4.11
2019-03-24T07:59:23.796Z,3.79
2019-03-24T08:00:38.257Z,4.24
2019-03-24T08:04:08.537Z,4.72
2019-03-24T08:07:38.599Z,4.29
2019-03-24T08:11:08.632Z,3.7
2019-03-24T08:14:38.768Z,4.97
2019-03-24T08:18:08.978Z,3.1
2019-03-24T08:21:38.950Z,4.11
2019-03-24T08:25:09.178Z,4.55
2019-03-24T08:28:39.198Z,3.17
2019-03-24T08:32:10.258Z,3.19
2019-03-24T08:35:40.337Z,3.97
2019-03-24T08:39:10.493Z,3.49
2019-03-24T08:42:40.633Z,3.59
2019-03-24T08:46:10.722Z,3.93
2019-03-24T08:49:40.820Z,3.42
2019-03-24T08:53:10.931Z,3.74
2019-03-24T08:56:41.010Z,4.07
2019-03-24T09:00:11.251Z,3.74
2019-03-24T09:03:41.291Z,3.35
2019-03-24T09:07:11.353Z,3.84
2019-03-24T09:10:41.562Z,3.29
2019-03-24T09:14:11.732Z,3.61
2019-03-24T09:17:41.982Z,3.61
2019-03-24T09:21:12.223Z,3.08
2019-03-24T09:24:42.363Z,3.66
2019-03-24T09:28:12.504Z,3.1
2019-03-24T09:31:42.544Z,2.91
2019-03-24T09:35:13.825Z,5.16
2019-03-24T09:38:43.964Z,2.86
2019-03-24T09:42:14.097Z,4.3
2019-03-24T09:45:44.287Z,3.94
2019-03-24T09:49:14.466Z,2.91
2019-03-24T09:52:44.566Z,4.84
2019-03-24T09:56:14.735Z,3.61
2019-03-24T09:59:44.897Z,4.28
2019-03-24T10:00:16.506Z,4.19
2019-03-24T10:03:46.609Z,3.58
2019-03-24T10:07:16.597Z,5.72
2019-03-24T10:10:46.759Z,7.11
2019-03-24T10:14:16.998Z,3.6
2019-03-24T10:17:47.169Z,3.35
2019-03-24T10:21:17.399Z,3.41
2019-03-24T10:24:47.460Z,4.06
2019-03-24T10:28:17.637Z,4.39
2019-03-24T10:31:47.750Z,3.74
2019-03-24T10:35:18.966Z,3.34
2019-03-24T10:38:49.071Z,4.01
2019-03-24T10:42:19.166Z,6.46
2019-03-24T10:45:49.263Z,3.75
2019-03-24T10:49:24.890Z,3.27
2019-03-24T10:52:55.483Z,4.17
2019-03-24T10:56:25.594Z,3.92
2019-03-24T10:59:55.725Z,3.02
2019-03-24T11:03:25.915Z,3.35
2019-03-24T11:06:56.006Z,4.52
2019-03-24T11:10:26.026Z,4.51
2019-03-24T11:13:56.197Z,4.88
2019-03-24T11:17:26.367Z,3.85
2019-03-24T11:20:56.459Z,4.79
2019-03-24T11:24:26.539Z,4.26
2019-03-24T11:27:56.650Z,5.35
2019-03-24T11:31:26.840Z,3.67
2019-03-24T11:34:56.900Z,5.3
2019-03-24T11:38:28.040Z,4.3
2019-03-24T11:41:58.111Z,6.1
2019-03-24T11:45:28.261Z,5
2019-03-24T11:48:58.356Z,3.54
2019-03-24T11:52:28.357Z,4.86
2019-03-24T11:55:58.550Z,4.75
2019-03-24T11:59:28.606Z,5.21
2019-03-24T12:00:25.155Z,6.66
2019-03-24T12:03:55.284Z,4.14
2019-03-24T12:07:25.395Z,5.88
2019-03-24T12:10:55.465Z,5.11
2019-03-24T12:14:25.496Z,4.74
2019-03-24T12:17:55.635Z,5.64
2019-03-24T12:21:25.606Z,4.94
2019-03-24T12:24:55.724Z,4.56
2019-03-24T12:28:25.826Z,4.04
2019-03-24T12:31:55.987Z,4.39
2019-03-24T12:35:26.137Z,4.35
2019-03-24T12:38:56.288Z,3.39
2019-03-24T12:42:26.444Z,4.66
2019-03-24T12:45:56.510Z,5.56
2019-03-24T12:49:26.600Z,3.74
2019-03-24T12:52:56.730Z,3.76
2019-03-24T12:56:26.870Z,4.34
2019-03-24T12:59:57.121Z,4.74
2019-03-24T13:03:27.214Z,4.47
2019-03-24T13:06:57.362Z,3.89
2019-03-24T13:10:27.330Z,3.05
2019-03-24T13:13:57.432Z,3.88
2019-03-24T13:17:27.513Z,4.44
2019-03-24T13:20:57.687Z,3.19
2019-03-24T13:24:27.700Z,4.24
2019-03-24T13:27:57.923Z,4.75
2019-03-24T13:31:28.056Z,3.56
2019-03-24T13:34:58.146Z,3.94
2019-03-24T13:38:28.277Z,3.56
2019-03-24T13:41:59.747Z,5.35
2019-03-24T13:45:29.939Z,4.8
2019-03-24T13:49:00.164Z,4.31
2019-03-24T13:52:30.261Z,5.12
2019-03-24T13:56:00.421Z,5.43
2019-03-24T13:59:30.400Z,5.68
2019-03-24T14:00:18.880Z,5.59
2019-03-24T14:03:49.041Z,5.23
2019-03-24T14:07:19.215Z,4.14
2019-03-24T14:10:49.363Z,3.89
2019-03-24T14:14:19.347Z,5.57
2019-03-24T14:17:49.514Z,3.3
2019-03-24T14:21:19.694Z,5.16
2019-03-24T14:24:49.826Z,5.71
2019-03-24T14:28:19.965Z,4.64
2019-03-24T14:31:50.197Z,4.49
2019-03-24T14:35:20.296Z,3.81
2019-03-24T14:38:50.507Z,5.91
2019-03-24T14:42:21.478Z,3.95
2019-03-24T14:45:51.599Z,4.58
2019-03-24T14:49:21.650Z,5.07
2019-03-24T14:52:51.840Z,5.43
2019-03-24T14:56:21.961Z,5
2019-03-24T14:59:52.121Z,8
2019-03-24T15:03:22.251Z,4.93
2019-03-24T15:06:52.425Z,6.33
2019-03-24T15:10:22.525Z,7.56
2019-03-24T15:13:52.603Z,5.12
2019-03-24T15:17:22.714Z,4.22
2019-03-24T15:20:52.873Z,6.29
2019-03-24T15:24:22.995Z,3.88
2019-03-24T15:27:53.176Z,5.15
2019-03-24T15:31:23.426Z,4.97
2019-03-24T15:34:53.613Z,6.04
2019-03-24T15:38:23.688Z,5.16
2019-03-24T15:41:53.938Z,8.62
2019-03-24T15:45:25.869Z,6.91
2019-03-24T15:48:55.982Z,8.81
2019-03-24T15:52:26.129Z,6.14
2019-03-24T15:55:56.170Z,7.62
2019-03-24T15:59:26.220Z,6.49
2019-03-24T16:00:38.631Z,11.07
2019-03-24T16:04:08.731Z,7.33
2019-03-24T16:07:38.912Z,5.84
2019-03-24T16:11:08.985Z,4.47
2019-03-24T16:14:39.013Z,9.62
2019-03-24T16:18:09.203Z,4.36
2019-03-24T16:21:39.244Z,14.16
2019-03-24T16:25:09.464Z,19.58
2019-03-24T16:28:39.624Z,9.89
2019-03-24T16:32:09.705Z,13.44
2019-03-24T16:35:39.855Z,6.33
2019-03-24T16:39:09.985Z,4.11
2019-03-24T16:42:40.086Z,3.55
2019-03-24T16:46:11.276Z,4.26
2019-03-24T16:49:41.386Z,2.85
2019-03-24T16:53:11.551Z,3.01
2019-03-24T16:56:41.677Z,3.65
2019-03-24T17:00:12.072Z,3.1
2019-03-24T17:03:42.177Z,3.76
2019-03-24T17:07:12.357Z,3.39
2019-03-24T17:10:42.537Z,2.96
2019-03-24T17:14:12.730Z,3.88
2019-03-24T17:17:42.856Z,3.09
2019-03-24T17:21:13.030Z,4.01
2019-03-24T17:24:43.229Z,4.33
2019-03-24T17:28:13.329Z,4.21
2019-03-24T17:31:43.393Z,3.49
2019-03-24T17:35:13.532Z,3.76
2019-03-24T17:38:43.533Z,4.46
2019-03-24T17:42:13.624Z,4.15
2019-03-24T17:45:43.753Z,5.14
2019-03-24T17:49:14.984Z,4.09
2019-03-24T17:52:45.043Z,4.03
2019-03-24T17:56:15.129Z,3.71
2019-03-24T17:59:45.488Z,3.56
2019-03-24T18:00:42.425Z,5.01
2019-03-24T18:04:12.504Z,4.19
2019-03-24T18:07:42.540Z,4.16
2019-03-24T18:11:12.686Z,4.75
2019-03-24T18:14:42.798Z,4
2019-03-24T18:18:12.909Z,4.94
2019-03-24T18:21:43.031Z,3.79
2019-03-24T18:25:13.317Z,5.71
2019-03-24T18:28:43.480Z,3.81
2019-03-24T18:32:13.625Z,3.44
2019-03-24T18:35:43.850Z,3.9
2019-03-24T18:39:13.956Z,3.99
2019-03-24T18:42:44.089Z,3.98
2019-03-24T18:46:14.304Z,2.99
2019-03-24T18:49:44.399Z,4.35
2019-03-24T18:53:14.493Z,4.06
2019-03-24T18:56:48.408Z,3.7
2019-03-24T19:00:19.213Z,3.5
2019-03-24T19:03:49.367Z,4.08
2019-03-24T19:07:19.433Z,6.91
2019-03-24T19:10:49.636Z,3.47
2019-03-24T19:14:19.792Z,4.16
2019-03-24T19:17:49.946Z,3.71
2019-03-24T19:21:20.041Z,3.16
2019-03-24T19:24:50.174Z,2.93
2019-03-24T19:28:20.259Z,3.8
2019-03-24T19:31:50.464Z,3.67
2019-03-24T19:35:20.619Z,3.41
2019-03-24T19:38:51.473Z,3.41
2019-03-24T19:42:21.608Z,3.66
2019-03-24T19:45:51.732Z,3.95
2019-03-24T19:49:21.797Z,3.39
2019-03-24T19:52:52.886Z,4.05
2019-03-24T19:56:23.156Z,3.59
2019-03-24T19:59:53.271Z,3.56
2019-03-24T20:00:15.901Z,4.35
2019-03-24T20:03:45.965Z,4.21
2019-03-24T20:07:16.029Z,4.45
2019-03-24T20:10:46.174Z,4.69
2019-03-24T20:14:16.198Z,4.07
2019-03-24T20:17:46.363Z,3.15
2019-03-24T20:21:16.509Z,4.53
2019-03-24T20:24:46.603Z,5
2019-03-24T20:28:16.639Z,4.25
2019-03-24T20:31:46.752Z,3.88
2019-03-24T20:35:16.824Z,3.7
2019-03-24T20:38:46.942Z,3.31
2019-03-24T20:42:17.090Z,3.38
2019-03-24T20:45:47.284Z,4.06
2019-03-24T20:49:17.401Z,4.11
2019-03-24T20:52:47.521Z,3.59
2019-03-24T20:56:18.564Z,5.26
2019-03-24T20:59:48.595Z,4.71
2019-03-24T21:03:18.654Z,3.74
2019-03-24T21:06:48.911Z,4.43
2019-03-24T21:10:18.964Z,4.43
2019-03-24T21:13:49.019Z,3.61
2019-03-24T21:17:19.020Z,4.64
2019-03-24T21:20:49.214Z,3.33
2019-03-24T21:24:19.385Z,4.15
2019-03-24T21:27:49.523Z,4.46
2019-03-24T21:31:19.572Z,4.36
2019-03-24T21:34:49.752Z,3.97
2019-03-24T21:38:19.871Z,4.19
2019-03-24T21:41:50.032Z,3.96
2019-03-24T21:45:20.190Z,4.4
2019-03-24T21:48:50.480Z,3.77
2019-03-24T21:52:20.444Z,3.48
2019-03-24T21:55:50.688Z,3.65
2019-03-24T21:59:22.438Z,5.06
2019-03-24T22:00:30.448Z,4.38
2019-03-24T22:04:00.601Z,3.46
2019-03-24T22:07:30.666Z,3.65
2019-03-24T22:11:00.865Z,3.34
2019-03-24T22:14:30.943Z,3.84
2019-03-24T22:18:01.205Z,3.51
2019-03-24T22:21:31.325Z,3.49
2019-03-24T22:25:01.486Z,4.26
2019-03-24T22:28:31.673Z,3.23
2019-03-24T22:32:01.762Z,3.4
2019-03-24T22:35:31.693Z,3.05
2019-03-24T22:39:03.741Z,3.27
2019-03-24T22:42:33.754Z,3.21
2019-03-24T22:46:03.959Z,3.96
2019-03-24T22:49:34.035Z,3.39
2019-03-24T22:53:04.208Z,3.76
2019-03-24T22:56:34.337Z,3.21
2019-03-24T23:00:08.747Z,3.2
2019-03-24T23:03:38.866Z,3.26
2019-03-24T23:07:09.135Z,2.24
2019-03-24T23:10:39.184Z,3.26
2019-03-24T23:14:09.378Z,3.33
2019-03-24T23:17:39.613Z,3.39
2019-03-24T23:21:09.793Z,3.79
2019-03-24T23:24:39.932Z,3.02
2019-03-24T23:28:10.131Z,3.77
2019-03-24T23:31:40.296Z,2.81
2019-03-24T23:35:10.637Z,2.91
2019-03-24T23:38:40.720Z,3.36
2019-03-24T23:42:10.889Z,3.69
2019-03-24T23:45:40.878Z,3.23
2019-03-24T23:49:11.078Z,3.5
2019-03-24T23:52:41.198Z,3.71
2019-03-24T23:56:11.326Z,2.86
2019-03-24T23:59:41.294Z,3.58
